Terminal Aerodrome Forecast
Issued by NWS

Home | Current Version | Previous Version | Text Only | Print | Product List | Glossary On
Versions: 1 2 3 4 5 6 7 8 9 10 11 12 13 14 15 16 17
260
FTUS41 KCAR 240611 AAA
TAFBHB
TAF AMD
KBHB 240611Z 2406/2506 20007KT P6SM OVC060
     FM240800 25010G20KT P6SM FEW200
     FM242300 31014G22KT P6SM FEW250=

USA.gov is the U.S. government's official web portal to all federal, state and local government web resources and services.